Terminal Aerodrome Forecast
Issued by NWS State College, PA

Current Version | Previous Version | Text Only | Print | Product List | Glossary On
Versions: 1 2 3 4 5 6 7 8 9 10 11 12 13 14 15 16 17 18 19 20 21 22 23 24 25 26 27 28
000
FTUS41 KCTP 282321
TAFIPT
TAF
KIPT 282321Z 2900/2924 VRB03KT P6SM -RA SCT015 OVC025
     FM290200 VRB03KT 4SM -DZ BR OVC015
     FM290800 VRB04KT 5SM BR OVC007=

USA.gov is the U.S. government's official web portal to all federal, state and local government web resources and services.